createdAt,value
2019-05-14T00:03:43.855Z,9.50
2019-05-14T00:08:49.292Z,9.40
2019-05-14T00:13:54.744Z,9.30
2019-05-14T00:19:01.672Z,9.20
2019-05-14T00:24:07.189Z,9.20
2019-05-14T00:29:12.624Z,9.10
2019-05-14T00:34:18.054Z,9.00
2019-05-14T00:39:23.481Z,8.90
2019-05-14T00:44:28.940Z,8.90
2019-05-14T00:49:34.404Z,8.80
2019-05-14T00:54:41.686Z,8.70
2019-05-14T00:59:47.020Z,8.60
2019-05-14T01:04:52.486Z,8.50
2019-05-14T01:09:57.987Z,8.40
2019-05-14T01:15:10.255Z,8.30
2019-05-14T01:20:12.397Z,8.20
2019-05-14T01:25:17.942Z,8.10
2019-05-14T01:30:23.371Z,8.10
2019-05-14T01:35:28.812Z,8.10
2019-05-14T01:40:34.296Z,8.00
2019-05-14T01:45:41.688Z,8.00
2019-05-14T01:50:47.029Z,7.90
2019-05-14T01:55:52.474Z,7.90
2019-05-14T02:00:57.912Z,7.80
2019-05-14T02:06:03.326Z,7.80
2019-05-14T02:11:08.792Z,7.70
2019-05-14T02:16:14.238Z,7.70
2019-05-14T02:21:19.652Z,7.70
2019-05-14T02:26:25.144Z,7.60
2019-05-14T02:31:30.682Z,7.50
2019-05-14T02:36:36.165Z,7.40
2019-05-14T02:41:41.644Z,7.30
2019-05-14T02:46:50.249Z,7.20
2019-05-14T02:51:54.233Z,7.10
2019-05-14T02:57:00.255Z,6.90
2019-05-14T03:02:05.798Z,6.90
2019-05-14T03:07:11.395Z,6.80
2019-05-14T03:12:19.454Z,6.70
2019-05-14T03:17:24.088Z,6.60
2019-05-14T03:22:42.779Z,6.60
2019-05-14T03:27:40.106Z,6.50
2019-05-14T03:32:44.169Z,6.40
2019-05-14T03:37:50.021Z,6.40
2019-05-14T03:42:55.545Z,6.40
2019-05-14T03:48:00.991Z,6.40
2019-05-14T03:53:09.847Z,6.40
2019-05-14T03:58:13.660Z,6.40
2019-05-14T04:03:19.930Z,6.40
2019-05-14T04:08:29.010Z,6.40
2019-05-14T04:13:33.834Z,6.40
2019-05-14T04:18:40.607Z,6.40
2019-05-14T04:23:51.210Z,6.50
2019-05-14T04:29:00.224Z,6.50
2019-05-14T04:34:04.552Z,6.60
2019-05-14T04:39:10.374Z,6.70
2019-05-14T04:44:18.940Z,6.80
2019-05-14T04:49:23.288Z,6.90
2019-05-14T04:54:30.136Z,7.00
2019-05-14T04:59:39.347Z,7.10
2019-05-14T05:04:43.140Z,7.20
2019-05-14T05:09:50.133Z,7.40
2019-05-14T05:14:58.565Z,7.70
2019-05-14T05:20:03.252Z,8.00
2019-05-14T05:25:08.859Z,8.30
2019-05-14T05:30:14.294Z,8.80
2019-05-14T05:35:19.899Z,9.90
2019-05-14T05:40:25.349Z,11.10
2019-05-14T05:45:30.826Z,13.30
2019-05-14T05:50:38.744Z,15.10
2019-05-14T05:55:43.553Z,16.50
2019-05-14T06:00:49.758Z,18.80
2019-05-14T06:05:55.459Z,20.50
2019-05-14T06:11:00.990Z,22.70
2019-05-14T06:16:09.204Z,23.70
2019-05-14T06:21:15.504Z,24.10
2019-05-14T06:26:21.170Z,23.90
2019-05-14T06:31:29.027Z,24.50
2019-05-14T06:36:34.138Z,25.10
2019-05-14T06:41:42.803Z,26.00
2019-05-14T06:46:52.378Z,26.60
2019-05-14T06:51:59.049Z,27.10
2019-05-14T06:57:05.137Z,27.40
2019-05-14T07:02:10.907Z,28.10
2019-05-14T07:07:16.779Z,28.60
2019-05-14T07:12:24.807Z,30.00
2019-05-14T07:17:38.405Z,31.30
2019-05-14T07:22:48.457Z,32.60
2019-05-14T07:28:02.190Z,34.60
2019-05-14T07:33:13.696Z,36.40
2019-05-14T07:38:29.352Z,37.10
2019-05-14T07:43:41.832Z,38.30
2019-05-14T07:49:04.412Z,38.30
2019-05-14T07:54:01.683Z,37.10
2019-05-14T07:59:09.047Z,38.10
2019-05-14T08:04:19.809Z,38.90
2019-05-14T08:09:28.232Z,39.80
2019-05-14T08:14:46.361Z,40.80
2019-05-14T08:19:44.791Z,40.20
2019-05-14T08:24:51.541Z,39.50
2019-05-14T08:29:58.924Z,38.80
2019-05-14T08:35:05.152Z,38.70
2019-05-14T08:40:19.046Z,38.40
2019-05-14T08:45:30.339Z,40.30
2019-05-14T08:50:38.802Z,41.40
2019-05-14T08:55:55.012Z,44.30
2019-05-14T09:01:00.721Z,45.50
2019-05-14T09:06:09.822Z,45.60
2019-05-14T09:11:22.980Z,45.20
2019-05-14T09:16:41.743Z,45.00
2019-05-14T09:21:39.535Z,46.30
2019-05-14T09:26:48.232Z,48.00
2019-05-14T09:31:58.953Z,47.30
2019-05-14T09:37:08.613Z,42.20
2019-05-14T09:42:14.473Z,41.50
2019-05-14T09:47:20.290Z,42.30
2019-05-14T09:52:29.349Z,39.50
2019-05-14T09:57:38.795Z,34.50
2019-05-14T10:02:44.591Z,30.50
2019-05-14T10:07:50.409Z,26.90
2019-05-14T10:12:57.259Z,24.50
2019-05-14T10:18:05.362Z,22.90
2019-05-14T10:23:12.421Z,21.80
2019-05-14T10:28:19.268Z,20.60
2019-05-14T10:33:24.965Z,19.70
2019-05-14T10:38:32.580Z,19.20
2019-05-14T10:43:42.572Z,19.00
2019-05-14T10:48:52.060Z,18.80
2019-05-14T10:54:16.936Z,18.90
2019-05-14T10:59:11.958Z,19.40
2019-05-14T11:04:19.175Z,18.80
2019-05-14T11:09:28.423Z,18.50
2019-05-14T11:14:33.393Z,18.40
2019-05-14T11:19:39.124Z,18.30
2019-05-14T11:24:44.911Z,17.90
2019-05-14T11:29:50.422Z,17.70
2019-05-14T11:34:55.968Z,17.70
2019-05-14T11:40:03.587Z,17.90
2019-05-14T11:45:09.234Z,17.90
2019-05-14T11:50:15.319Z,18.00
2019-05-14T11:55:20.772Z,17.90
2019-05-14T12:00:29.295Z,17.80
2019-05-14T12:05:35.456Z,17.60
2019-05-14T12:10:41.019Z,17.50
2019-05-14T12:15:48.564Z,17.50
2019-05-14T12:20:53.712Z,17.90
2019-05-14T12:25:59.288Z,18.10
2019-05-14T12:31:04.870Z,18.10
2019-05-14T12:36:10.658Z,17.80
2019-05-14T12:41:19.053Z,17.70
2019-05-14T12:46:23.318Z,17.70
2019-05-14T12:51:28.738Z,17.40
2019-05-14T12:56:34.208Z,17.30
2019-05-14T13:01:39.635Z,17.30
2019-05-14T13:06:45.070Z,17.50
2019-05-14T13:11:50.835Z,17.50
2019-05-14T13:16:56.280Z,17.50
2019-05-14T13:22:13.126Z,17.80
2019-05-14T13:27:09.651Z,18.10
2019-05-14T13:32:15.189Z,18.10
2019-05-14T13:37:20.665Z,18.10
2019-05-14T13:42:26.123Z,18.10
2019-05-14T13:47:31.673Z,18.10
2019-05-14T13:52:40.365Z,17.90
2019-05-14T13:57:44.511Z,17.80
2019-05-14T14:02:49.933Z,18.10
2019-05-14T14:07:55.359Z,18.40
2019-05-14T14:13:01.202Z,18.40
2019-05-14T14:18:06.814Z,18.20
2019-05-14T14:23:21.978Z,18.10
2019-05-14T14:28:19.886Z,18.20
2019-05-14T14:33:25.492Z,18.10
2019-05-14T14:38:31.002Z,17.90
2019-05-14T14:43:42.368Z,18.00
2019-05-14T14:48:43.871Z,18.10
2019-05-14T14:53:59.084Z,17.90
2019-05-14T14:58:56.695Z,17.60
2019-05-14T15:04:02.170Z,17.60
2019-05-14T15:09:09.778Z,17.60
2019-05-14T15:14:15.318Z,17.70
2019-05-14T15:19:20.775Z,17.70
2019-05-14T15:24:26.250Z,17.60
2019-05-14T15:29:31.707Z,17.50
2019-05-14T15:34:37.187Z,17.70
2019-05-14T15:39:42.887Z,17.80
2019-05-14T15:44:55.364Z,17.70
2019-05-14T15:49:55.748Z,17.60
2019-05-14T15:55:01.565Z,17.70
2019-05-14T16:00:08.718Z,17.60
2019-05-14T16:05:14.379Z,17.60
2019-05-14T16:10:21.730Z,17.50
2019-05-14T16:15:28.133Z,17.30
2019-05-14T16:20:33.753Z,17.20
2019-05-14T16:25:39.328Z,17.20
2019-05-14T16:30:44.862Z,17.20
2019-05-14T16:35:50.292Z,17.10
2019-05-14T16:40:55.736Z,17.10
2019-05-14T16:46:01.475Z,17.10
2019-05-14T16:51:08.915Z,16.90
2019-05-14T16:56:14.117Z,16.80
2019-05-14T17:01:19.555Z,16.70
2019-05-14T17:06:25.093Z,16.50
2019-05-14T17:11:30.604Z,16.50
2019-05-14T17:16:36.334Z,16.40
2019-05-14T17:21:42.050Z,16.30
2019-05-14T17:26:48.906Z,16.20
2019-05-14T17:31:54.431Z,16.00
2019-05-14T17:36:59.896Z,15.90
2019-05-14T17:42:05.368Z,15.70
2019-05-14T17:47:10.847Z,15.60
2019-05-14T17:52:21.884Z,15.40
2019-05-14T17:57:25.335Z,15.30
2019-05-14T18:02:30.859Z,15.20
2019-05-14T18:07:36.384Z,15.10
2019-05-14T18:12:42.044Z,15.00
2019-05-14T18:17:49.549Z,15.00
2019-05-14T18:22:54.734Z,14.90
2019-05-14T18:28:00.182Z,14.80
2019-05-14T18:33:07.846Z,14.70
2019-05-14T18:38:12.753Z,14.60
2019-05-14T18:43:18.812Z,14.50
2019-05-14T18:48:24.323Z,14.40
2019-05-14T18:53:29.783Z,14.40
2019-05-14T18:58:35.295Z,14.20
2019-05-14T19:03:40.855Z,14.10
2019-05-14T19:08:48.316Z,14.00
2019-05-14T19:13:53.552Z,13.80
2019-05-14T19:18:59.001Z,13.70
2019-05-14T19:24:04.466Z,13.60
2019-05-14T19:29:09.960Z,13.50
2019-05-14T19:34:15.390Z,13.40
2019-05-14T19:39:21.177Z,13.20
2019-05-14T19:44:26.726Z,13.10
2019-05-14T19:49:32.261Z,13.00
2019-05-14T19:54:38.432Z,12.90
2019-05-14T19:59:43.990Z,12.80
2019-05-14T20:04:49.488Z,12.70
2019-05-14T20:09:54.909Z,12.60
2019-05-14T20:15:00.365Z,12.50
2019-05-14T20:20:08.619Z,12.40
2019-05-14T20:25:13.626Z,12.30
2019-05-14T20:30:19.445Z,12.20
2019-05-14T20:35:31.712Z,12.20
2019-05-14T20:40:32.085Z,12.10
2019-05-14T20:45:39.151Z,12.10
2019-05-14T20:50:44.741Z,12.00
2019-05-14T20:55:50.193Z,11.90
2019-05-14T21:00:55.613Z,11.80
2019-05-14T21:06:01.051Z,11.70
2019-05-14T21:11:08.211Z,11.70
2019-05-14T21:16:13.621Z,11.60
2019-05-14T21:21:19.076Z,11.50
2019-05-14T21:26:24.643Z,11.50
2019-05-14T21:31:30.436Z,11.50
2019-05-14T21:36:36.271Z,11.30
2019-05-14T21:41:41.955Z,11.30
2019-05-14T21:46:48.337Z,11.20
2019-05-14T21:51:58.030Z,11.20
2019-05-14T21:57:11.278Z,11.10
2019-05-14T22:02:24.294Z,10.90
2019-05-14T22:07:25.713Z,10.90
2019-05-14T22:12:34.563Z,10.70
2019-05-14T22:17:45.017Z,10.60
2019-05-14T22:23:15.358Z,10.50
2019-05-14T22:28:22.305Z,10.40
2019-05-14T22:33:31.440Z,10.30
2019-05-14T22:38:45.031Z,10.10
2019-05-14T22:44:00.036Z,10.00
2019-05-14T22:49:14.701Z,9.90
2019-05-14T22:54:24.084Z,9.80
2019-05-14T22:59:32.173Z,9.70
2019-05-14T23:04:40.357Z,9.60
2019-05-14T23:09:48.264Z,9.50
2019-05-14T23:53:56.432Z,8.70
